createdAt,value
2019-04-25T00:00:55.884Z,11.90
2019-04-25T00:01:55.903Z,12.04
2019-04-25T00:02:55.853Z,12.02
2019-04-25T00:03:55.840Z,12.04
2019-04-25T00:04:55.851Z,11.94
2019-04-25T00:05:55.820Z,11.93
2019-04-25T00:06:55.822Z,12.02
2019-04-25T00:07:55.810Z,11.97
2019-04-25T00:08:55.790Z,12.01
2019-04-25T00:09:55.795Z,11.99
2019-04-25T00:10:55.777Z,11.93
2019-04-25T00:11:55.754Z,11.90
2019-04-25T00:12:55.753Z,11.86
2019-04-25T00:13:55.733Z,12.02
2019-04-25T00:14:55.722Z,11.94
2019-04-25T00:15:55.712Z,11.85
2019-04-25T00:16:55.703Z,11.96
2019-04-25T00:17:55.690Z,11.85
2019-04-25T00:18:55.705Z,11.90
2019-04-25T00:19:55.680Z,11.93
2019-04-25T00:20:55.675Z,11.93
2019-04-25T00:21:55.666Z,11.93
2019-04-25T00:22:55.646Z,11.94
2019-04-25T00:23:55.625Z,11.93
2019-04-25T00:24:55.625Z,11.93
2019-04-25T00:25:55.621Z,11.96
2019-04-25T00:26:55.603Z,11.94
2019-04-25T00:27:55.583Z,12.01
2019-04-25T00:28:55.581Z,12.09
2019-04-25T00:29:55.560Z,12.01
2019-04-25T00:30:55.562Z,11.99
2019-04-25T00:31:55.539Z,12.12
2019-04-25T00:32:55.530Z,12.13
2019-04-25T00:33:55.521Z,12.15
2019-04-25T00:34:55.507Z,12.13
2019-04-25T00:35:55.500Z,12.20
2019-04-25T00:36:55.496Z,12.11
2019-04-25T00:37:55.483Z,12.15
2019-04-25T00:38:55.465Z,12.19
2019-04-25T00:39:55.480Z,12.21
2019-04-25T00:40:55.442Z,12.24
2019-04-25T00:41:55.436Z,12.15
2019-04-25T00:42:55.435Z,12.20
2019-04-25T00:43:55.412Z,12.23
2019-04-25T00:44:55.400Z,12.19
2019-04-25T00:45:55.398Z,12.27
2019-04-25T00:46:56.799Z,12.23
2019-04-25T00:47:55.369Z,12.11
2019-04-25T00:48:55.375Z,12.05
2019-04-25T00:49:55.357Z,12.04
2019-04-25T00:50:55.334Z,11.94
2019-04-25T00:51:55.322Z,12.01
2019-04-25T00:52:55.312Z,11.99
2019-04-25T00:53:55.301Z,12.11
2019-04-25T00:54:55.300Z,12.04
2019-04-25T00:55:55.287Z,11.97
2019-04-25T00:56:55.270Z,11.96
2019-04-25T00:57:55.257Z,11.96
2019-04-25T00:58:55.249Z,11.82
2019-04-25T00:59:55.235Z,11.85
2019-04-25T01:00:55.242Z,11.83
2019-04-25T01:01:55.214Z,11.68
2019-04-25T01:02:55.209Z,11.70
2019-04-25T01:03:55.193Z,11.56
2019-04-25T01:04:55.184Z,11.57
2019-04-25T01:05:55.173Z,11.56
2019-04-25T01:06:55.171Z,11.50
2019-04-25T01:07:55.150Z,11.61
2019-04-25T01:08:55.925Z,11.57
2019-04-25T01:09:55.132Z,11.54
2019-04-25T01:10:55.120Z,11.72
2019-04-25T01:11:55.110Z,11.52
2019-04-25T01:12:55.106Z,11.54
2019-04-25T01:13:55.084Z,11.56
2019-04-25T01:14:55.088Z,11.62
2019-04-25T01:15:55.072Z,11.57
2019-04-25T01:16:55.052Z,11.46
2019-04-25T01:17:55.147Z,11.39
2019-04-25T01:18:55.590Z,11.36
2019-04-25T01:19:57.741Z,11.28
2019-04-25T01:20:55.463Z,11.29
2019-04-25T01:21:56.004Z,11.21
2019-04-25T01:22:56.993Z,11.24
2019-04-25T01:23:55.739Z,11.19
2019-04-25T01:24:55.992Z,11.16
2019-04-25T01:25:55.798Z,11.19
2019-04-25T01:26:55.865Z,11.14
2019-04-25T01:27:54.933Z,11.03
2019-04-25T01:28:54.988Z,10.96
2019-04-25T01:29:55.540Z,10.96
2019-04-25T01:30:55.160Z,10.88
2019-04-25T01:31:55.279Z,10.96
2019-04-25T01:32:55.410Z,10.88
2019-04-25T01:33:55.615Z,10.94
2019-04-25T01:34:58.584Z,10.81
2019-04-25T01:35:56.899Z,10.80
2019-04-25T01:36:55.834Z,10.86
2019-04-25T01:37:55.292Z,10.74
2019-04-25T01:38:56.564Z,10.76
2019-04-25T01:39:55.921Z,10.83
2019-04-25T01:40:55.610Z,10.76
2019-04-25T01:41:55.246Z,10.74
2019-04-25T01:42:54.990Z,10.66
2019-04-25T01:43:59.204Z,10.76
2019-04-25T01:44:56.879Z,10.78
2019-04-25T01:45:54.923Z,10.80
2019-04-25T01:46:55.574Z,10.68
2019-04-25T01:47:55.189Z,10.76
2019-04-25T01:48:55.427Z,10.74
2019-04-25T01:49:55.548Z,10.63
2019-04-25T01:50:55.482Z,10.65
2019-04-25T01:51:57.037Z,10.70
2019-04-25T01:52:55.626Z,10.66
2019-04-25T01:53:55.689Z,10.62
2019-04-25T01:54:55.792Z,10.62
2019-04-25T01:56:01.626Z,10.65
2019-04-25T01:56:56.211Z,10.55
2019-04-25T01:57:55.186Z,10.53
2019-04-25T01:58:55.034Z,10.59
2019-04-25T01:59:55.407Z,10.53
2019-04-25T02:00:56.079Z,10.43
2019-04-25T02:01:55.423Z,10.46
2019-04-25T02:02:54.923Z,10.46
2019-04-25T02:03:55.456Z,10.46
2019-04-25T02:04:56.852Z,10.43
2019-04-25T02:05:55.225Z,10.42
2019-04-25T02:06:54.929Z,10.34
2019-04-25T02:07:55.020Z,10.32
2019-04-25T02:08:55.273Z,10.39
2019-04-25T02:09:55.190Z,10.25
2019-04-25T02:10:56.773Z,10.24
2019-04-25T02:11:55.535Z,10.24
2019-04-25T02:12:55.293Z,10.21
2019-04-25T02:13:54.985Z,10.25
2019-04-25T02:14:55.690Z,10.15
2019-04-25T02:15:55.169Z,10.09
2019-04-25T02:16:55.949Z,10.10
2019-04-25T02:17:57.869Z,10.12
2019-04-25T02:18:55.546Z,10.14
2019-04-25T02:19:55.510Z,10.14
2019-04-25T02:20:57.537Z,10.15
2019-04-25T02:21:55.321Z,10.15
2019-04-25T02:22:55.263Z,10.14
2019-04-25T02:23:55.492Z,10.14
2019-04-25T02:24:55.660Z,10.10
2019-04-25T02:26:05.927Z,10.18
2019-04-25T02:26:56.319Z,10.10
2019-04-25T02:27:55.718Z,10.22
2019-04-25T02:28:55.150Z,10.15
2019-04-25T02:29:55.241Z,10.12
2019-04-25T02:30:58.352Z,10.17
2019-04-25T02:31:59.120Z,10.15
2019-04-25T02:32:58.176Z,10.10
2019-04-25T02:33:57.881Z,10.15
2019-04-25T02:34:59.099Z,10.18
2019-04-25T02:35:58.937Z,10.21
2019-04-25T02:36:58.882Z,10.19
2019-04-25T02:37:57.989Z,10.24
2019-04-25T02:38:59.551Z,10.09
2019-04-25T02:39:57.231Z,10.12
2019-04-25T02:40:56.268Z,10.14
2019-04-25T02:41:56.127Z,10.12
2019-04-25T02:42:55.860Z,10.21
2019-04-25T02:43:56.320Z,10.25
2019-04-25T02:44:57.865Z,10.09
2019-04-25T02:45:55.500Z,10.07
2019-04-25T02:46:55.879Z,10.17
2019-04-25T02:47:56.232Z,10.09
2019-04-25T02:48:56.189Z,10.00
2019-04-25T02:49:55.818Z,10.12
2019-04-25T02:50:56.453Z,10.10
2019-04-25T02:51:56.205Z,10.12
2019-04-25T02:52:55.700Z,10.12
2019-04-25T02:53:55.925Z,10.15
2019-04-25T02:54:55.617Z,10.04
2019-04-25T02:55:53.982Z,10.01
2019-04-25T02:56:54.737Z,10.01
2019-04-25T02:57:54.224Z,9.96
2019-04-25T02:58:54.387Z,9.85
2019-04-25T02:59:54.717Z,9.83
2019-04-25T03:01:03.413Z,9.89
2019-04-25T03:01:57.015Z,9.79
2019-04-25T03:02:54.761Z,9.85
2019-04-25T03:03:54.671Z,9.85
2019-04-25T03:04:54.614Z,9.82
2019-04-25T03:05:54.870Z,9.83
2019-04-25T03:06:55.505Z,9.78
2019-04-25T03:07:54.559Z,9.88
2019-04-25T03:08:54.358Z,9.86
2019-04-25T03:09:54.771Z,9.85
2019-04-25T03:10:54.429Z,9.99
2019-04-25T03:11:54.835Z,9.82
2019-04-25T03:12:54.421Z,9.86
2019-04-25T03:13:54.596Z,9.82
2019-04-25T03:14:55.032Z,9.86
2019-04-25T03:15:55.710Z,9.83
2019-04-25T03:16:54.321Z,9.86
2019-04-25T03:17:54.602Z,9.78
2019-04-25T03:18:54.449Z,9.78
2019-04-25T03:19:54.367Z,9.89
2019-04-25T03:20:54.855Z,9.85
2019-04-25T03:21:55.038Z,9.86
2019-04-25T03:22:54.719Z,9.89
2019-04-25T03:23:54.981Z,9.88
2019-04-25T03:24:54.890Z,9.86
2019-04-25T03:25:53.647Z,9.86
2019-04-25T03:26:53.636Z,9.78
2019-04-25T03:27:54.128Z,9.83
2019-04-25T03:28:53.825Z,9.79
2019-04-25T03:29:54.203Z,9.81
2019-04-25T03:30:54.886Z,9.81
2019-04-25T03:31:56.058Z,9.79
2019-04-25T03:32:56.184Z,9.85
2019-04-25T03:33:55.803Z,9.75
2019-04-25T03:34:54.881Z,9.78
2019-04-25T03:35:53.539Z,9.79
2019-04-25T03:36:53.768Z,9.88
2019-04-25T03:37:54.493Z,9.85
2019-04-25T03:38:54.203Z,9.85
2019-04-25T03:39:53.610Z,9.86
2019-04-25T03:40:53.906Z,9.85
2019-04-25T03:41:53.977Z,9.78
2019-04-25T03:42:53.825Z,9.73
2019-04-25T03:43:54.210Z,9.71
2019-04-25T03:44:53.869Z,9.71
2019-04-25T03:45:53.574Z,9.60
2019-04-25T03:46:53.522Z,9.67
2019-04-25T03:47:53.408Z,9.50
2019-04-25T03:48:53.962Z,9.56
2019-04-25T03:49:55.389Z,9.46
2019-04-25T03:50:54.065Z,9.46
2019-04-25T03:51:53.812Z,9.46
2019-04-25T03:52:54.057Z,9.48
2019-04-25T03:53:53.642Z,9.43
2019-04-25T03:54:53.527Z,9.42
2019-04-25T03:55:54.053Z,9.39
2019-04-25T03:56:55.885Z,9.48
2019-04-25T03:57:53.937Z,9.35
2019-04-25T03:58:54.008Z,9.38
2019-04-25T03:59:53.700Z,9.20
2019-04-25T04:00:54.510Z,9.20
2019-04-25T04:01:53.773Z,9.21
2019-04-25T04:02:53.742Z,9.18
2019-04-25T04:03:53.793Z,9.20
2019-04-25T04:04:53.778Z,9.23
2019-04-25T04:05:54.018Z,9.13
2019-04-25T04:06:53.739Z,9.16
2019-04-25T04:07:53.583Z,9.15
2019-04-25T04:08:53.873Z,9.09
2019-04-25T04:09:54.888Z,9.16
2019-04-25T04:10:54.349Z,9.23
2019-04-25T04:11:53.511Z,9.23
2019-04-25T04:12:54.263Z,9.24
2019-04-25T04:13:53.796Z,9.24
2019-04-25T04:14:53.761Z,9.16
2019-04-25T04:15:53.303Z,9.16
2019-04-25T04:16:53.902Z,9.12
2019-04-25T04:17:53.634Z,9.06
2019-04-25T04:18:54.086Z,9.18
2019-04-25T04:19:53.708Z,9.13
2019-04-25T04:20:53.492Z,9.06
2019-04-25T04:21:53.257Z,9.04
2019-04-25T04:22:53.353Z,8.97
2019-04-25T04:23:54.462Z,9.02
2019-04-25T04:24:53.805Z,9.04
2019-04-25T04:25:54.531Z,8.96
2019-04-25T04:27:03.080Z,9.05
2019-04-25T04:27:53.981Z,8.96
2019-04-25T04:28:53.386Z,9.05
2019-04-25T04:29:54.235Z,9.02
2019-04-25T04:30:54.115Z,9.12
2019-04-25T04:31:54.400Z,9.13
2019-04-25T04:32:53.662Z,9.05
2019-04-25T04:33:53.179Z,9.16
2019-04-25T04:34:53.714Z,9.18
2019-04-25T04:35:54.284Z,9.05
2019-04-25T04:36:53.706Z,9.06
2019-04-25T04:37:54.204Z,9.09
2019-04-25T04:38:54.328Z,9.18
2019-04-25T04:39:53.598Z,9.18
2019-04-25T04:40:52.833Z,9.16
2019-04-25T04:41:53.544Z,9.13
2019-04-25T04:42:53.367Z,9.13
2019-04-25T04:43:54.134Z,9.10
2019-04-25T04:44:53.484Z,9.12
2019-04-25T04:45:54.104Z,9.05
2019-04-25T04:46:53.846Z,9.16
2019-04-25T04:47:53.350Z,9.06
2019-04-25T04:48:54.049Z,9.20
2019-04-25T04:49:53.979Z,9.15
2019-04-25T04:50:53.488Z,9.12
2019-04-25T04:51:54.166Z,9.15
2019-04-25T04:52:54.020Z,9.13
2019-04-25T04:53:53.713Z,9.23
2019-04-25T04:55:03.700Z,9.23
2019-04-25T04:55:54.365Z,9.16
2019-04-25T04:56:53.664Z,9.25
2019-04-25T04:57:54.172Z,9.25
2019-04-25T04:58:53.963Z,9.35
2019-04-25T04:59:53.610Z,9.38
2019-04-25T05:00:53.717Z,9.43
2019-04-25T05:01:53.278Z,9.40
2019-04-25T05:02:53.384Z,9.45
2019-04-25T05:03:54.030Z,9.45
2019-04-25T05:04:53.623Z,9.49
2019-04-25T05:05:53.564Z,9.46
2019-04-25T05:06:53.709Z,9.49
2019-04-25T05:07:53.904Z,9.49
2019-04-25T05:08:53.195Z,9.53
2019-04-25T05:09:53.492Z,9.61
2019-04-25T05:10:54.073Z,9.61
2019-04-25T05:11:53.983Z,9.58
2019-04-25T05:12:53.275Z,9.53
2019-04-25T05:13:53.753Z,9.56
2019-04-25T05:14:53.692Z,9.63
2019-04-25T05:15:53.253Z,9.63
2019-04-25T05:16:53.281Z,9.67
2019-04-25T05:17:53.953Z,9.76
2019-04-25T05:18:55.092Z,9.78
2019-04-25T05:19:53.266Z,9.75
2019-04-25T05:20:54.156Z,9.91
2019-04-25T05:21:53.711Z,9.85
2019-04-25T05:22:54.576Z,9.91
2019-04-25T05:23:54.209Z,9.93
2019-04-25T05:24:53.547Z,10.03
2019-04-25T05:25:52.338Z,9.99
2019-04-25T05:26:53.901Z,10.15
2019-04-25T05:28:00.752Z,10.10
2019-04-25T05:28:54.819Z,10.15
2019-04-25T05:29:53.881Z,10.04
2019-04-25T05:30:53.523Z,10.10
2019-04-25T05:31:53.775Z,10.15
2019-04-25T05:32:54.240Z,10.04
2019-04-25T05:33:53.640Z,10.12
2019-04-25T05:34:53.254Z,10.07
2019-04-25T05:35:53.783Z,10.14
2019-04-25T05:36:53.780Z,10.19
2019-04-25T05:37:53.335Z,10.24
2019-04-25T05:38:53.816Z,10.25
2019-04-25T05:39:53.546Z,10.28
2019-04-25T05:40:53.814Z,10.36
2019-04-25T05:41:52.168Z,10.42
2019-04-25T05:42:52.157Z,10.43
2019-04-25T05:43:53.538Z,10.51
2019-04-25T05:44:52.135Z,10.58
2019-04-25T05:45:52.138Z,10.63
2019-04-25T05:46:52.112Z,10.81
2019-04-25T05:47:52.102Z,10.92
2019-04-25T05:48:53.681Z,11.02
2019-04-25T05:49:52.080Z,11.28
2019-04-25T05:50:53.681Z,11.41
2019-04-25T05:51:53.466Z,11.54
2019-04-25T05:52:52.047Z,11.71
2019-04-25T05:53:52.036Z,11.68
2019-04-25T05:54:52.026Z,11.80
2019-04-25T05:55:52.015Z,11.89
2019-04-25T05:56:53.642Z,12.02
2019-04-25T05:57:53.518Z,12.11
2019-04-25T05:58:53.213Z,12.20
2019-04-25T05:59:53.642Z,12.30
2019-04-25T06:00:51.960Z,12.51
2019-04-25T06:01:53.689Z,12.66
2019-04-25T06:02:53.361Z,12.82
2019-04-25T06:03:53.562Z,12.84
2019-04-25T06:04:53.495Z,12.82
2019-04-25T06:05:53.256Z,12.96
2019-04-25T06:06:53.047Z,13.11
2019-04-25T06:07:51.902Z,13.18
2019-04-25T06:08:51.875Z,13.11
2019-04-25T06:09:51.874Z,13.17
2019-04-25T06:10:51.857Z,13.36
2019-04-25T06:11:53.308Z,13.24
2019-04-25T06:12:53.548Z,13.33
2019-04-25T06:13:53.185Z,13.30
2019-04-25T06:14:52.961Z,13.21
2019-04-25T06:15:53.302Z,13.29
2019-04-25T06:16:51.786Z,13.14
2019-04-25T06:17:53.362Z,13.20
2019-04-25T06:18:51.767Z,13.09
2019-04-25T06:19:53.303Z,13.21
2019-04-25T06:20:51.744Z,13.17
2019-04-25T06:21:53.430Z,13.15
2019-04-25T06:22:53.357Z,13.22
2019-04-25T06:23:51.711Z,13.32
2019-04-25T06:24:51.699Z,13.47
2019-04-25T06:25:51.690Z,13.79
2019-04-25T06:26:51.678Z,13.94
2019-04-25T06:27:57.215Z,13.92
2019-04-25T06:28:59.039Z,14.07
2019-04-25T06:29:59.017Z,14.31
2019-04-25T06:30:54.006Z,14.39
2019-04-25T06:32:03.371Z,14.43
2019-04-25T06:32:53.299Z,14.57
2019-04-25T06:33:53.769Z,14.69
2019-04-25T06:34:51.602Z,14.78
2019-04-25T06:35:51.579Z,14.67
2019-04-25T06:36:51.567Z,14.62
2019-04-25T06:37:51.557Z,14.61
2019-04-25T06:38:51.562Z,14.80
2019-04-25T06:39:51.538Z,14.69
2019-04-25T06:40:51.525Z,14.81
2019-04-25T06:41:51.514Z,14.81
2019-04-25T06:42:51.502Z,14.68
2019-04-25T06:43:51.493Z,14.64
2019-04-25T06:44:51.491Z,14.65
2019-04-25T06:45:51.473Z,14.81
2019-04-25T06:46:51.460Z,14.69
2019-04-25T06:47:51.447Z,15.01
2019-04-25T06:48:51.437Z,15.01
2019-04-25T06:49:53.163Z,15.03
2019-04-25T06:50:51.426Z,14.87
2019-04-25T06:51:51.407Z,14.74
2019-04-25T06:52:51.393Z,14.86
2019-04-25T06:53:51.384Z,14.86
2019-04-25T06:54:51.372Z,14.74
2019-04-25T06:55:51.360Z,14.67
2019-04-25T06:56:51.360Z,14.64
2019-04-25T06:57:51.339Z,14.65
2019-04-25T06:58:51.327Z,14.80
2019-04-25T06:59:51.317Z,15.05
2019-04-25T07:00:58.920Z,15.11
2019-04-25T07:01:54.106Z,15.31
2019-04-25T07:02:51.284Z,15.38
2019-04-25T07:03:51.274Z,15.41
2019-04-25T07:04:51.611Z,15.36
2019-04-25T07:05:51.253Z,15.54
2019-04-25T07:06:51.242Z,15.51
2019-04-25T07:07:51.250Z,15.48
2019-04-25T07:08:51.223Z,15.46
2019-04-25T07:09:51.232Z,15.45
2019-04-25T07:10:51.203Z,15.57
2019-04-25T07:11:51.189Z,15.56
2019-04-25T07:12:51.179Z,15.66
2019-04-25T07:13:51.177Z,15.78
2019-04-25T07:14:51.159Z,15.49
2019-04-25T07:15:51.155Z,15.42
2019-04-25T07:16:51.135Z,15.33
2019-04-25T07:17:51.123Z,15.48
2019-04-25T07:18:51.115Z,15.63
2019-04-25T07:19:51.113Z,15.66
2019-04-25T07:20:51.097Z,15.79
2019-04-25T07:21:51.080Z,15.89
2019-04-25T07:22:51.072Z,16.11
2019-04-25T07:23:51.058Z,16.35
2019-04-25T07:24:51.053Z,16.44
2019-04-25T07:25:51.047Z,16.42
2019-04-25T07:26:51.025Z,16.38
2019-04-25T07:27:51.043Z,16.45
2019-04-25T07:28:51.004Z,16.55
2019-04-25T07:29:50.998Z,16.35
2019-04-25T07:30:52.676Z,16.30
2019-04-25T07:31:50.982Z,16.37
2019-04-25T07:32:50.961Z,16.48
2019-04-25T07:33:50.952Z,16.53
2019-04-25T07:34:50.939Z,16.49
2019-04-25T07:35:50.929Z,16.41
2019-04-25T07:36:50.918Z,16.26
2019-04-25T07:37:50.925Z,16.31
2019-04-25T07:39:04.960Z,16.31
2019-04-25T07:39:51.884Z,16.20
2019-04-25T07:40:50.874Z,16.18
2019-04-25T07:41:50.864Z,16.27
2019-04-25T07:42:50.851Z,16.15
2019-04-25T07:43:50.854Z,16.06
2019-04-25T07:44:53.422Z,16.04
2019-04-25T07:45:50.820Z,15.88
2019-04-25T07:46:50.811Z,15.78
2019-04-25T07:47:50.890Z,15.79
2019-04-25T07:48:50.809Z,15.88
2019-04-25T07:49:50.792Z,15.88
2019-04-25T07:50:50.768Z,15.93
2019-04-25T07:51:50.754Z,15.88
2019-04-25T07:52:50.743Z,15.84
2019-04-25T07:53:50.733Z,16.00
2019-04-25T07:54:50.722Z,16.01
2019-04-25T07:55:50.729Z,16.06
2019-04-25T07:56:50.702Z,16.07
2019-04-25T07:57:50.688Z,16.11
2019-04-25T07:58:52.729Z,16.31
2019-04-25T07:59:52.145Z,16.45
2019-04-25T08:00:50.657Z,16.67
2019-04-25T08:01:50.654Z,16.65
2019-04-25T08:02:50.633Z,16.83
2019-04-25T08:03:50.628Z,16.89
2019-04-25T08:04:50.616Z,16.75
2019-04-25T08:05:50.603Z,16.80
2019-04-25T08:06:50.590Z,16.92
2019-04-25T08:07:50.590Z,16.83
2019-04-25T08:08:50.570Z,16.83
2019-04-25T08:09:50.562Z,16.86
2019-04-25T08:10:50.549Z,16.86
2019-04-25T08:11:50.536Z,16.86
2019-04-25T08:12:50.525Z,16.98
2019-04-25T08:13:50.525Z,16.98
2019-04-25T08:14:50.508Z,16.92
2019-04-25T08:15:50.493Z,17.03
2019-04-25T08:16:50.484Z,17.25
2019-04-25T08:17:50.472Z,17.43
2019-04-25T08:18:50.462Z,17.48
2019-04-25T08:19:50.462Z,17.69
2019-04-25T08:20:50.439Z,17.95
2019-04-25T08:21:50.428Z,18.06
2019-04-25T08:22:57.101Z,18.13
2019-04-25T08:23:51.405Z,18.10
2019-04-25T08:24:50.396Z,18.00
2019-04-25T08:25:50.399Z,18.12
2019-04-25T08:26:50.375Z,18.09
2019-04-25T08:27:50.363Z,18.02
2019-04-25T08:28:55.763Z,18.02
2019-04-25T08:29:51.341Z,17.91
2019-04-25T08:30:50.334Z,18.06
2019-04-25T08:31:50.332Z,17.89
2019-04-25T08:32:50.309Z,17.73
2019-04-25T08:33:50.298Z,17.62
2019-04-25T08:34:50.289Z,17.46
2019-04-25T08:36:04.442Z,17.48
2019-04-25T08:36:51.276Z,17.44
2019-04-25T08:37:50.256Z,17.46
2019-04-25T08:38:50.254Z,17.44
2019-04-25T08:39:50.236Z,17.44
2019-04-25T08:40:50.224Z,17.44
2019-04-25T08:41:50.212Z,17.40
2019-04-25T08:42:50.219Z,17.43
2019-04-25T08:43:50.191Z,17.41
2019-04-25T08:44:50.183Z,17.33
2019-04-25T08:45:50.168Z,17.35
2019-04-25T08:46:50.158Z,17.29
2019-04-25T08:47:50.147Z,17.46
2019-04-25T08:48:50.153Z,17.46
2019-04-25T08:49:50.126Z,17.38
2019-04-25T08:50:50.116Z,17.26
2019-04-25T08:51:50.105Z,17.29
2019-04-25T08:52:50.098Z,17.26
2019-04-25T08:53:50.085Z,17.43
2019-04-25T08:54:50.083Z,17.48
2019-04-25T08:55:50.061Z,17.54
2019-04-25T08:56:50.050Z,17.50
2019-04-25T08:57:50.040Z,17.55
2019-04-25T08:59:03.202Z,17.54
2019-04-25T08:59:52.882Z,17.64
2019-04-25T09:00:59.354Z,17.57
2019-04-25T09:01:51.003Z,17.69
2019-04-25T09:02:49.988Z,17.82
2019-04-25T09:03:49.975Z,18.00
2019-04-25T09:04:49.964Z,18.00
2019-04-25T09:05:49.989Z,17.89
2019-04-25T09:06:49.944Z,17.97
2019-04-25T09:07:49.932Z,18.12
2019-04-25T09:08:49.921Z,18.18
2019-04-25T09:09:49.912Z,18.21
2019-04-25T09:10:49.899Z,18.21
2019-04-25T09:11:49.898Z,18.29
2019-04-25T09:12:49.877Z,18.44
2019-04-25T09:13:49.872Z,18.47
2019-04-25T09:14:49.858Z,18.27
2019-04-25T09:15:49.846Z,18.12
2019-04-25T09:16:49.839Z,18.24
2019-04-25T09:17:49.836Z,18.24
2019-04-25T09:18:49.814Z,18.24
2019-04-25T09:19:49.803Z,18.31
2019-04-25T09:20:49.793Z,18.18
2019-04-25T09:21:49.781Z,18.19
2019-04-25T09:22:49.770Z,18.22
2019-04-25T09:23:49.773Z,18.42
2019-04-25T09:24:49.754Z,18.59
2019-04-25T09:25:49.737Z,18.64
2019-04-25T09:26:49.726Z,18.64
2019-04-25T09:27:49.715Z,18.73
2019-04-25T09:28:49.704Z,18.82
2019-04-25T09:29:49.705Z,18.98
2019-04-25T09:30:49.683Z,19.08
2019-04-25T09:31:49.677Z,19.31
2019-04-25T09:32:49.662Z,19.18
2019-04-25T09:33:49.651Z,19.31
2019-04-25T09:34:50.130Z,19.15
2019-04-25T09:35:49.640Z,18.94
2019-04-25T09:36:49.618Z,18.82
2019-04-25T09:37:49.607Z,18.80
2019-04-25T09:38:49.597Z,18.99
2019-04-25T09:39:49.590Z,19.01
2019-04-25T09:40:49.576Z,19.02
2019-04-25T09:41:49.581Z,19.18
2019-04-25T09:42:49.556Z,19.17
2019-04-25T09:43:49.543Z,19.25
2019-04-25T09:44:49.538Z,19.18
2019-04-25T09:45:49.521Z,18.94
2019-04-25T09:46:49.511Z,18.67
2019-04-25T09:47:49.512Z,18.65
2019-04-25T09:48:49.489Z,18.59
2019-04-25T09:49:49.478Z,18.54
2019-04-25T09:50:49.467Z,18.49
2019-04-25T09:51:49.460Z,18.49
2019-04-25T09:52:49.449Z,18.33
2019-04-25T09:53:51.270Z,18.34
2019-04-25T09:54:49.424Z,18.21
2019-04-25T09:55:49.414Z,18.24
2019-04-25T09:56:49.403Z,18.24
2019-04-25T09:57:49.396Z,18.28
2019-04-25T09:58:49.511Z,18.43
2019-04-25T09:59:49.381Z,18.55
2019-04-25T10:00:49.360Z,18.68
2019-04-25T10:01:49.350Z,18.72
2019-04-25T10:02:49.340Z,18.68
2019-04-25T10:03:49.329Z,18.68
2019-04-25T10:04:49.319Z,18.72
2019-04-25T10:05:49.319Z,18.61
2019-04-25T10:06:49.297Z,18.65
2019-04-25T10:07:49.288Z,18.79
2019-04-25T10:08:49.275Z,18.92
2019-04-25T10:09:49.271Z,19.17
2019-04-25T10:10:49.254Z,19.29
2019-04-25T10:11:49.257Z,19.15
2019-04-25T10:12:49.979Z,18.94
2019-04-25T10:13:49.222Z,18.90
2019-04-25T10:14:49.211Z,18.80
2019-04-25T10:15:49.199Z,18.59
2019-04-25T10:16:49.190Z,18.39
2019-04-25T10:17:49.187Z,18.31
2019-04-25T10:18:49.166Z,18.22
2019-04-25T10:19:49.154Z,18.21
2019-04-25T10:20:49.474Z,18.22
2019-04-25T10:21:49.696Z,18.36
2019-04-25T10:22:49.122Z,18.25
2019-04-25T10:23:51.213Z,18.25
2019-04-25T10:24:59.932Z,18.22
2019-04-25T10:25:50.090Z,18.22
2019-04-25T10:26:49.079Z,18.22
2019-04-25T10:27:49.409Z,18.22
2019-04-25T10:28:49.609Z,18.18
2019-04-25T10:29:53.610Z,18.31
2019-04-25T10:30:50.035Z,18.42
2019-04-25T10:31:49.220Z,18.49
2019-04-25T10:32:49.014Z,18.55
2019-04-25T10:33:49.004Z,18.62
2019-04-25T10:34:49.028Z,18.76
2019-04-25T10:35:53.080Z,18.73
2019-04-25T10:36:49.969Z,18.72
2019-04-25T10:37:48.959Z,18.61
2019-04-25T10:39:01.915Z,18.77
2019-04-25T10:39:49.937Z,18.82
2019-04-25T10:40:48.927Z,18.83
2019-04-25T10:41:49.589Z,18.77
2019-04-25T10:42:50.579Z,18.90
2019-04-25T10:43:48.898Z,18.82
2019-04-25T10:44:48.885Z,18.83
2019-04-25T10:45:48.873Z,18.76
2019-04-25T10:46:48.868Z,18.73
2019-04-25T10:47:49.440Z,18.70
2019-04-25T10:48:48.840Z,18.74
2019-04-25T10:49:49.500Z,18.80
2019-04-25T10:50:48.818Z,18.94
2019-04-25T10:51:48.807Z,18.92
2019-04-25T10:52:48.797Z,18.94
2019-04-25T10:53:48.860Z,18.83
2019-04-25T10:54:48.775Z,18.90
2019-04-25T10:55:49.686Z,18.94
2019-04-25T10:56:48.752Z,18.80
2019-04-25T10:57:48.741Z,18.65
2019-04-25T10:58:48.731Z,18.57
2019-04-25T11:00:00.778Z,18.58
2019-04-25T11:00:49.709Z,18.62
2019-04-25T11:01:48.960Z,18.64
2019-04-25T11:02:49.686Z,18.67
2019-04-25T11:03:48.676Z,18.61
2019-04-25T11:04:49.785Z,18.62
2019-04-25T11:05:49.797Z,18.64
2019-04-25T11:06:49.326Z,18.74
2019-04-25T11:07:48.688Z,18.94
2019-04-25T11:08:49.148Z,18.99
2019-04-25T11:09:49.179Z,19.13
2019-04-25T11:10:49.928Z,19.06
2019-04-25T11:11:48.599Z,18.97
2019-04-25T11:12:49.295Z,19.02
2019-04-25T11:13:48.658Z,19.06
2019-04-25T11:14:48.796Z,19.10
2019-04-25T11:15:48.559Z,19.20
2019-04-25T11:16:48.534Z,19.17
2019-04-25T11:17:48.540Z,19.18
2019-04-25T11:18:49.566Z,19.28
2019-04-25T11:19:49.217Z,19.20
2019-04-25T11:20:48.492Z,19.31
2019-04-25T11:21:48.481Z,19.42
2019-04-25T11:22:49.384Z,19.46
2019-04-25T11:23:49.086Z,19.46
2019-04-25T11:24:48.659Z,19.47
2019-04-25T11:25:48.442Z,19.47
2019-04-25T11:26:50.453Z,19.50
2019-04-25T11:27:49.921Z,19.53
2019-04-25T11:28:48.811Z,19.53
2019-04-25T11:29:48.592Z,19.57
2019-04-25T11:30:48.387Z,19.47
2019-04-25T11:31:48.949Z,19.51
2019-04-25T11:32:48.364Z,19.53
2019-04-25T11:33:48.353Z,19.53
2019-04-25T11:34:48.342Z,19.66
2019-04-25T11:35:49.038Z,19.63
2019-04-25T11:36:48.514Z,19.65
2019-04-25T11:37:48.427Z,19.63
2019-04-25T11:38:48.300Z,19.53
2019-04-25T11:39:48.290Z,19.53
2019-04-25T11:40:50.239Z,19.33
2019-04-25T11:41:49.435Z,19.24
2019-04-25T11:42:48.314Z,19.36
2019-04-25T11:43:48.724Z,19.32
2019-04-25T11:44:48.237Z,19.29
2019-04-25T11:45:49.196Z,19.46
2019-04-25T11:46:48.215Z,19.47
2019-04-25T11:47:48.439Z,19.60
2019-04-25T11:48:48.197Z,19.50
2019-04-25T11:49:49.078Z,19.58
2019-04-25T11:50:50.352Z,19.65
2019-04-25T11:51:48.210Z,19.70
2019-04-25T11:52:48.154Z,19.75
2019-04-25T11:53:48.465Z,19.72
2019-04-25T11:54:48.222Z,19.72
2019-04-25T11:55:49.323Z,19.80
2019-04-25T11:56:48.626Z,19.93
2019-04-25T11:57:50.089Z,19.98
2019-04-25T11:58:48.906Z,20.13
2019-04-25T11:59:49.550Z,20.13
2019-04-25T12:00:48.861Z,20.25
2019-04-25T12:01:48.057Z,20.21
2019-04-25T12:02:48.045Z,20.31
2019-04-25T12:03:48.935Z,20.25
2019-04-25T12:04:48.953Z,20.33
2019-04-25T12:05:49.184Z,20.35
2019-04-25T12:06:48.000Z,20.20
2019-04-25T12:07:47.993Z,20.20
2019-04-25T12:08:49.075Z,20.09
2019-04-25T12:09:48.166Z,20.13
2019-04-25T12:10:47.957Z,20.15
2019-04-25T12:11:48.508Z,20.28
2019-04-25T12:12:47.993Z,20.43
2019-04-25T12:13:48.130Z,20.39
2019-04-25T12:14:47.917Z,20.31
2019-04-25T12:15:47.901Z,20.25
2019-04-25T12:16:50.325Z,20.23
2019-04-25T12:17:47.891Z,20.16
2019-04-25T12:18:50.148Z,20.15
2019-04-25T12:19:47.858Z,20.24
2019-04-25T12:20:48.714Z,20.24
2019-04-25T12:21:48.214Z,20.28
2019-04-25T12:22:48.269Z,20.21
2019-04-25T12:23:48.744Z,20.24
2019-04-25T12:24:47.968Z,20.21
2019-04-25T12:25:47.793Z,20.34
2019-04-25T12:26:48.714Z,20.34
2019-04-25T12:27:49.784Z,20.54
2019-04-25T12:28:47.761Z,20.42
2019-04-25T12:29:47.761Z,20.46
2019-04-25T12:30:47.739Z,20.38
2019-04-25T12:31:47.751Z,20.33
2019-04-25T12:32:47.912Z,20.39
2019-04-25T12:33:49.090Z,20.38
2019-04-25T12:34:47.697Z,20.42
2019-04-25T12:35:47.949Z,20.35
2019-04-25T12:36:48.442Z,20.38
2019-04-25T12:37:48.125Z,20.43
2019-04-25T12:38:48.358Z,20.41
2019-04-25T12:39:48.522Z,20.39
2019-04-25T12:40:48.195Z,20.42
2019-04-25T12:41:49.074Z,20.46
2019-04-25T12:42:47.882Z,20.39
2019-04-25T12:43:47.602Z,20.30
2019-04-25T12:44:48.812Z,20.24
2019-04-25T12:45:47.578Z,20.27
2019-04-25T12:46:48.518Z,20.21
2019-04-25T12:47:47.669Z,20.21
2019-04-25T12:48:47.680Z,20.25
2019-04-25T12:49:48.597Z,20.23
2019-04-25T12:50:47.905Z,20.30
2019-04-25T12:51:47.787Z,20.27
2019-04-25T12:52:48.632Z,20.43
2019-04-25T12:53:48.013Z,20.49
2019-04-25T12:54:47.641Z,20.51
2019-04-25T12:55:47.535Z,20.68
2019-04-25T12:56:47.517Z,20.86
2019-04-25T12:57:48.201Z,20.83